• Join FlightAware (Why Join?)
  • Login
  • US Flag 
10:39AM EDT


 

Airport Tracker/Info


-or-


 

Live Flight TrackerFlight Track Log ✈ SKW5305 ✈ 06-May-2013 ✈ KSEA - KPDX

Flight Track Log - Related Links

Times and Time Zones

All times are in EDT time to prevent confusion due to time zone crossing. See the SKW5305 flight status page for this flight to view local times or setup timezone preferences in your user account.

Time Position Orientation Groundspeed Altitude Reporting Facility
EDT Latitude Longitude Course Direction KTS MPH feet Rate Location/Type
08:33PM 47.4822 -122.3117 180° South 123 142 2,000  Level Seattle Center
08:35PM 47.5614 -122.3742 332° Northwest 178 205 6,300 2,040 Climbing Seattle Center
08:36PM 47.0912 -122.3683 180° South  Level Estimated
08:36PM 47.5211 -122.4075 209° Southwest 201 231 8,300  Level Seattle Center
08:37PM 47.0015 -122.3823 180° South  Level Estimated
08:37PM 47.4681 -122.3856 164° South 200 230 9,500  Level Seattle Center
08:38PM 46.9410 -122.3917 180° South  Level Estimated
08:39PM 47.3583 -122.3036 153° Southeast 220 253 12,200  Level Seattle Center
08:40PM 47.2950 -122.3050 181° South 226 260 13,500 1,200 Climbing Seattle Center
08:41PM 47.2311 -122.3100 183° South 231 266 14,700 480 Climbing Seattle Center
08:43PM 47.0819 -122.3081 179° South 275 316 15,000 60 Climbing Seattle Center
08:44PM 47.0017 -122.3086 180° South 289 333 15,000  Level Seattle Center
08:45PM 46.9200 -122.3097 181° South 293 337 15,000  Level Seattle Center
08:46PM 46.8381 -122.3092 180° South 295 339 15,000  Level Seattle Center
08:47PM 46.7503 -122.3092 180° South 295 339 15,000  Level Seattle Center
08:48PM 46.6811 -122.3103 181° South 294 338 15,000  Level Seattle Center
08:49PM 46.5989 -122.3106 180° South 296 341 15,000  Level Seattle Center
08:50PM 46.5008 -122.3297 188° South 301 346 15,000 -360 Level Seattle Center
08:52PM 46.4124 -122.3123 172° South  Level FlightAware Approximate
08:52PM 46.3364 -122.3653 172° South 303 349 14,000  Level Seattle Center
08:53PM 46.2456 -122.3781 186° South 330 380 12,400 -1,920 Descending Seattle Center
08:54PM 46.1536 -122.3947 187° South 326 375 10,200 -1,680 Descending Seattle Center
08:55PM 46.0717 -122.4108 188° South 310 357 8,900 -720 Descending Seattle Center
08:56PM 45.9942 -122.4400 195° South 290 334 8,700 -840 Descending Seattle Center
08:57PM 45.9100 -122.4367 178° South 295 339 7,300 -1,320 Descending Seattle Center
08:58PM 45.8044 -122.4372 180° South 285 328 5,900 -900 Descending Seattle Center
08:59PM 45.7517 -122.4358 179° South 283 326 5,500 -480 Descending Seattle Center